Time;durP1;ratioP1;P1;durP2;ratioP2;P2;SDS_P1;SDS_P2;PMS_P1;PMS_P2;Temp;Humidity;BMP_temperature;BMP_pressure;BME280_temperature;BME280_humidity;BME280_pressure;Samples;Min_cycle;Max_cycle;Signal;HPM_P1;HPM_P2
2023/12/07 00:04:19;;;;;;;16.75;9.90;;;;;;;4.27;92.73;99515.66;7182710;40;20802;31
2023/12/07 00:09:52;;;;;;;19.80;10.45;;;;;;;4.24;92.06;99525.72;7126618;40;20829;31
2023/12/07 00:15:28;;;;;;;15.05;9.50;;;;;;;4.19;92.56;99523.41;7130947;40;20865;31
2023/12/07 00:21:03;;;;;;;17.77;9.93;;;;;;;4.13;92.88;99525.69;7061825;40;20474;31
2023/12/07 00:26:23;;;;;;;16.95;9.60;;;;;;;4.14;92.14;99530.91;7109113;40;20748;31
2023/12/07 00:32:01;;;;;;;15.02;9.22;;;;;;;4.05;92.80;99520.94;7148386;40;21431;31
2023/12/07 00:37:21;;;;;;;15.63;9.40;;;;;;;4.05;92.79;99528.94;7140212;40;20247;31
2023/12/07 00:42:56;;;;;;;12.97;9.27;;;;;;;4.01;92.59;99522.16;7189641;40;20257;31
2023/12/07 00:48:30;;;;;;;13.20;9.33;;;;;;;3.98;92.87;99517.91;7175728;40;20802;31
2023/12/07 00:54:05;;;;;;;14.77;8.60;;;;;;;3.96;92.65;99534.97;7172864;40;20769;31
2023/12/07 00:59:25;;;;;;;11.10;8.10;;;;;;;3.96;91.53;99545.66;7198702;40;20392;31
2023/12/07 01:05:02;;;;;;;12.50;8.20;;;;;;;3.79;91.74;99551.41;7200327;40;20246;31
2023/12/07 01:10:23;;;;;;;13.70;8.00;;;;;;;3.77;91.25;99558.69;7164041;40;20699;31
2023/12/07 01:15:44;;;;;;;11.30;7.95;;;;;;;3.68;91.85;99570.03;7181284;40;20243;31
2023/12/07 01:21:18;;;;;;;12.50;8.80;;;;;;;3.54;93.41;99574.56;7175932;40;20347;31
2023/12/07 01:26:39;;;;;;;13.27;8.23;;;;;;;3.49;93.11;99581.19;7192330;40;20239;31
2023/12/07 01:32:11;;;;;;;16.80;9.05;;;;;;;3.45;93.23;99579.72;7272820;39;20377;31
2023/12/07 01:37:48;;;;;;;12.95;9.40;;;;;;;3.51;92.39;99577.44;7229540;40;21005;31
2023/12/07 01:43:22;;;;;;;12.63;9.50;;;;;;;3.50;92.63;99580.25;7230519;40;20399;31
2023/12/07 01:48:55;;;;;;;13.47;9.20;;;;;;;3.53;93.00;99588.84;7162616;40;20250;31
2023/12/07 01:54:30;;;;;;;14.90;9.40;;;;;;;3.56;92.37;99587.75;7213141;40;20241;31
2023/12/07 02:00:07;;;;;;;14.17;9.60;;;;;;;3.60;92.69;99591.91;7187411;40;20836;31
2023/12/07 02:05:38;;;;;;;15.03;9.83;;;;;;;3.56;91.57;99588.63;7157656;40;20805;31
2023/12/07 02:11:15;;;;;;;14.87;10.00;;;;;;;3.55;93.29;99580.75;7137733;40;20251;31
2023/12/07 02:16:50;;;;;;;14.40;10.13;;;;;;;3.48;93.17;99580.34;7178163;40;20258;31
2023/12/07 02:22:23;;;;;;;12.93;9.67;;;;;;;3.47;91.83;99588.44;7145351;40;20263;31
2023/12/07 02:33:02;;;;;;;17.65;10.10;;;;;;;3.38;91.40;99584.63;7229608;40;20258;31
2023/12/07 02:43:42;;;;;;;12.50;9.25;;;;;;;3.14;92.37;99599.75;7239289;40;20403;31
2023/12/07 02:49:19;;;;;;;14.55;10.25;;;;;;;3.20;92.56;99596.66;7219600;40;20830;31
2023/12/07 02:54:55;;;;;;;15.00;9.60;;;;;;;3.25;92.70;99588.31;7208237;40;20981;31
2023/12/07 03:06:30;;;;;;;15.65;10.10;;;;;;;3.10;91.98;99596.44;7254169;40;20395;31
2023/12/07 03:16:56;;;;;;;17.00;9.25;;;;;;;3.20;92.24;99601.97;7265171;40;20292;31
2023/12/07 03:27:38;;;;;;;12.97;8.13;;;;;;;3.03;91.97;99604.97;7264984;40;20277;31
2023/12/07 03:32:58;;;;;;;15.40;8.50;;;;;;;2.95;92.74;99607.31;7271496;40;20768;31
2023/12/07 03:38:18;;;;;;;12.55;9.05;;;;;;;3.05;93.17;99619.87;7237107;40;20773;31
2023/12/07 03:43:55;;;;;;;12.00;8.90;;;;;;;3.04;92.39;99612.84;7294818;39;20725;31
2023/12/07 03:49:15;;;;;;;12.03;8.43;;;;;;;3.06;92.79;99610.94;7200853;40;20809;31
2023/12/07 03:54:48;;;;;;;13.30;8.85;;;;;;;2.98;91.22;99613.31;7162137;40;20238;31
2023/12/07 04:00:25;;;;;;;11.57;8.43;;;;;;;2.96;92.51;99615.22;7140319;40;20414;31
2023/12/07 04:05:45;;;;;;;13.05;8.25;;;;;;;3.03;92.44;99616.47;7131095;40;21954;31
2023/12/07 04:11:02;;;;;;;10.40;7.40;;;;;;;3.06;92.50;99618.09;7148945;40;20363;31
2023/12/07 04:16:39;;;;;;;11.80;7.33;;;;;;;2.96;92.54;99609.88;7185204;40;20321;31
2023/12/07 04:21:56;;;;;;;11.40;7.80;;;;;;;3.01;92.01;99618.41;7166049;40;20275;31
2023/12/07 04:27:32;;;;;;;11.25;7.50;;;;;;;2.92;91.65;99611.06;7211901;40;20345;31
2023/12/07 04:33:06;;;;;;;10.60;7.53;;;;;;;2.87;93.33;99623.00;7218333;40;20887;31
2023/12/07 04:38:26;;;;;;;11.95;7.60;;;;;;;2.90;92.73;99631.59;7195308;40;22453;31
2023/12/07 04:43:58;;;;;;;10.40;8.00;;;;;;;2.83;91.81;99629.50;7175578;40;20713;31
2023/12/07 04:49:36;;;;;;;11.80;8.40;;;;;;;2.68;91.77;99624.28;7148212;40;20356;31
2023/12/07 04:55:11;;;;;;;11.30;8.15;;;;;;;2.72;91.38;99627.59;7145304;40;21992;31
2023/12/07 05:00:43;;;;;;;10.33;7.60;;;;;;;2.64;92.20;99611.28;7175863;40;20837;31
2023/12/07 05:06:17;;;;;;;10.37;7.47;;;;;;;2.52;92.27;99613.00;7158034;40;20742;31
2023/12/07 05:16:56;;;;;;;11.17;7.87;;;;;;;2.66;91.87;99604.91;7213415;40;20270;31
2023/12/07 05:22:31;;;;;;;13.03;8.43;;;;;;;2.62;92.07;99607.91;7210708;40;20269;31
2023/12/07 05:27:52;;;;;;;11.00;8.53;;;;;;;2.55;92.42;99615.44;7174653;40;20254;31
2023/12/07 05:33:26;;;;;;;12.43;7.77;;;;;;;2.41;91.56;99612.91;7218653;40;20265;31
2023/12/07 05:39:07;;;;;;;12.73;7.93;;;;;;;2.41;92.61;99631.53;7158875;40;20320;31
2023/12/07 05:44:25;;;;;;;10.45;7.85;;;;;;;2.46;91.17;99633.84;7200011;40;21410;31
2023/12/07 05:50:04;;;;;;;;;;;;;;;;;;;;;
2023/12/07 05:55:32;;;;;;;8.53;7.00;;;;;;;2.36;90.49;99636.28;7260351;40;20873;31
2023/12/07 06:06:28;;;;;;;11.02;7.03;;;;;;;2.31;91.45;99638.41;7228530;40;20303;31
2023/12/07 06:12:05;;;;;;;8.88;6.87;;;;;;;2.22;91.51;99637.22;7219015;40;20391;31
2023/12/07 06:17:22;;;;;;;10.83;6.80;;;;;;;2.21;90.75;99639.97;7015228;40;21892;31
2023/12/07 06:22:59;;;;;;;10.57;7.17;;;;;;;2.04;90.94;99632.28;7259270;40;20350;31
2023/12/07 06:28:34;;;;;;;10.55;7.95;;;;;;;2.00;91.05;99638.75;7207849;40;20783;31
2023/12/07 06:33:54;;;;;;;10.60;7.20;;;;;;;2.01;91.50;99630.69;7129004;40;20325;31
2023/12/07 06:39:15;;;;;;;11.25;7.90;;;;;;;1.90;90.84;99635.84;7114914;40;20259;31
2023/12/07 06:44:49;;;;;;;11.80;8.60;;;;;;;1.87;91.36;99630.75;7127909;40;20839;31
2023/12/07 06:50:09;;;;;;;14.30;8.47;;;;;;;2.00;91.91;99628.13;7162230;40;20242;31
2023/12/07 06:55:43;;;;;;;12.57;8.63;;;;;;;1.99;91.23;99621.97;7229952;40;20289;31
2023/12/07 07:06:25;;;;;;;9.80;7.83;;;;;;;2.01;91.77;99635.16;7276789;39;20260;31
2023/12/07 07:17:06;;;;;;;12.67;7.63;;;;;;;1.72;92.68;99653.88;7263299;40;20254;31
2023/12/07 07:27:47;;;;;;;9.60;7.27;;;;;;;1.75;92.49;99672.28;7223660;40;20365;31
2023/12/07 07:38:14;;;;;;;11.63;7.50;;;;;;;1.94;92.82;99668.41;7232361;40;20270;31
2023/12/07 07:48:47;;;;;;;9.30;6.30;;;;;;;1.83;92.55;99645.19;5181404;49;20337;-75
2023/12/07 07:59:11;;;;;;;10.10;7.20;;;;;;;1.74;94.29;99662.59;7266469;39;20247;31
2023/12/07 08:04:45;;;;;;;8.63;6.43;;;;;;;1.77;94.15;99649.09;7276327;40;20315;31
2023/12/07 08:15:25;;;;;;;8.60;6.20;;;;;;;1.96;94.27;99640.78;7256983;40;20289;31
2023/12/07 08:26:07;;;;;;;7.80;6.35;;;;;;;2.05;93.15;99618.91;7204273;40;20266;31
2023/12/07 08:36:32;;;;;;;10.93;7.50;;;;;;;2.32;93.76;99626.81;7161058;40;20259;31
2023/12/07 08:42:05;;;;;;;12.10;7.57;;;;;;;2.35;93.41;99623.09;7205183;40;20241;31
2023/12/07 08:47:28;;;;;;;10.75;6.80;;;;;;;2.34;93.30;99632.03;7161233;40;20273;31
2023/12/07 08:58:10;;;;;;;9.17;6.63;;;;;;;2.39;92.85;99630.75;7237602;40;20535;31
2023/12/07 09:08:49;;;;;;;9.70;7.20;;;;;;;2.55;92.56;99622.56;7296330;40;20277;31
2023/12/07 09:19:31;;;;;;;10.30;6.90;;;;;;;2.54;93.44;99616.41;7227698;40;20314;31
2023/12/07 09:30:10;;;;;;;12.10;6.90;;;;;;;2.56;93.27;99610.97;7215907;40;20274;31
2023/12/07 09:40:50;;;;;;;10.47;7.20;;;;;;;2.63;94.25;99614.94;7243142;40;20672;31
2023/12/07 09:46:23;;;;;;;8.87;6.83;;;;;;;2.59;93.31;99606.28;7234253;40;20266;31
2023/12/07 09:51:55;;;;;;;10.90;7.10;;;;;;;2.72;94.22;99601.00;7173893;40;20266;31
2023/12/07 09:57:29;;;;;;;9.43;7.30;;;;;;;2.76;93.44;99617.59;7217939;40;20809;31
2023/12/07 10:03:00;;;;;;;11.20;7.30;;;;;;;2.84;93.70;99615.22;7193747;40;20258;31
2023/12/07 10:08:41;;;;;;;10.30;7.50;;;;;;;2.93;94.34;99607.44;7169966;40;20269;31
2023/12/07 10:14:18;;;;;;;11.60;7.90;;;;;;;2.97;92.84;99600.09;7205924;40;20320;31
2023/12/07 10:19:37;;;;;;;12.87;9.67;;;;;;;3.01;94.00;99593.59;7178778;40;20225;31
2023/12/07 10:25:10;;;;;;;13.80;9.30;;;;;;;3.01;93.56;99590.94;7216491;40;21499;31
2023/12/07 10:30:47;;;;;;;16.30;9.75;;;;;;;2.99;92.87;99576.84;7220811;40;20295;31
2023/12/07 10:36:24;;;;;;;12.10;9.00;;;;;;;3.00;94.14;99574.09;7211014;40;20346;31
2023/12/07 10:46:59;;;;;;;11.27;8.20;;;;;;;2.84;93.20;99543.37;7212456;40;20728;31
2023/12/07 10:52:34;;;;;;;14.70;9.40;;;;;;;2.76;95.25;99524.44;7152311;40;22044;31
2023/12/07 10:58:10;;;;;;;14.82;10.18;;;;;;;2.96;95.81;99507.88;7144305;40;20259;31
2023/12/07 11:03:47;;;;;;;16.30;9.90;;;;;;;3.13;95.51;99505.69;7101189;41;20241;31
2023/12/07 11:09:23;;;;;;;14.90;9.82;;;;;;;3.22;93.43;99488.19;7126777;40;20323;31
2023/12/07 11:14:58;;;;;;;15.07;9.63;;;;;;;3.36;93.22;99484.50;7176140;40;20933;31
2023/12/07 11:20:38;;;;;;;13.00;9.60;;;;;;;3.33;92.94;99474.06;7219451;40;20788;31
2023/12/07 11:31:18;;;;;;;14.97;10.20;;;;;;;3.33;93.41;99450.09;7221233;40;20346;31
2023/12/07 11:42:00;;;;;;;17.85;12.10;;;;;;;3.38;93.37;99440.78;7216903;40;20736;31
2023/12/07 11:52:26;;;;;;;19.70;11.10;;;;;;;3.37;94.20;99446.25;7256954;40;20259;31
2023/12/07 11:58:01;;;;;;;23.03;13.53;;;;;;;3.15;92.92;99420.38;7235602;40;20788;31
2023/12/07 12:03:37;;;;;;;22.15;13.50;;;;;;;3.22;95.25;99402.09;7256213;39;20837;31
2023/12/07 12:08:57;;;;;;;39.27;11.10;;;;;;;3.08;93.93;99401.31;7278804;40;20386;31
2023/12/07 12:14:33;;;;;;;45.30;12.03;;;;;;;2.70;94.72;99390.87;7216391;40;20316;31
2023/12/07 12:20:07;;;;;;;21.50;12.93;;;;;;;2.65;95.44;99393.00;7247176;40;20260;31
2023/12/07 12:25:42;;;;;;;26.90;11.50;;;;;;;2.66;95.69;99397.38;7198008;40;20789;31
2023/12/07 12:36:27;;;;;;;18.87;11.97;;;;;;;2.68;95.59;99379.47;7321801;39;20262;31
2023/12/07 12:41:57;;;;;;;20.00;11.00;;;;;;;2.73;95.40;99390.63;7248647;40;20257;31
2023/12/07 12:47:19;;;;;;;18.50;10.30;;;;;;;2.64;94.44;99388.63;7242991;40;20257;31
2023/12/07 12:52:51;;;;;;;17.60;10.37;;;;;;;2.53;94.64;99385.06;7257725;40;20803;31
2023/12/07 12:58:22;;;;;;;22.05;11.10;;;;;;;2.51;95.67;99395.81;7198257;40;20313;31
2023/12/07 13:03:40;;;;;;;18.07;11.10;;;;;;;2.60;94.78;99376.53;7158983;40;20278;31
2023/12/07 13:09:14;;;;;;;22.65;12.95;;;;;;;2.57;94.39;99374.09;7185685;40;20270;31
2023/12/07 13:14:50;;;;;;;20.45;11.90;;;;;;;2.67;94.86;99376.94;7132288;40;20503;31
2023/12/07 13:20:23;;;;;;;18.57;11.77;;;;;;;2.66;93.93;99364.59;7082011;40;20275;31
2023/12/07 13:26:06;;;;;;;19.90;11.43;;;;;;;2.69;95.49;99365.22;7121594;40;20333;31
2023/12/07 13:31:25;;;;;;;23.13;13.60;;;;;;;2.64;95.03;99355.84;7139141;40;20805;31
2023/12/07 13:37:01;;;;;;;24.03;14.77;;;;;;;2.65;95.48;99361.06;7148998;40;20921;31
2023/12/07 13:42:39;;;;;;;23.63;13.63;;;;;;;2.76;94.30;99356.78;7165135;40;20238;31
2023/12/07 13:48:00;;;;;;;24.40;14.40;;;;;;;2.76;95.33;99359.44;7221339;40;20253;31
2023/12/07 13:53:34;;;;;;;22.77;15.10;;;;;;;2.72;96.19;99332.22;7233009;40;20343;31
2023/12/07 13:59:07;;;;;;;23.80;14.35;;;;;;;2.80;96.39;99311.19;7017473;40;21157;31
2023/12/07 14:09:56;;;;;;;26.05;14.82;;;;;;;2.88;96.87;99294.66;7118369;40;20415;31
2023/12/07 14:20:51;;;;;;;34.80;20.80;;;;;;;2.93;96.33;99284.50;7098788;40;20341;31
2023/12/07 17:14:44;;;;;;;38.45;17.60;;;;;;;2.44;100.00;99079.88;7174816;40;20334;31
